createdAt,value
2022-09-11T00:08:22.109Z,73.73
2022-09-11T05:48:56.982Z,79.10
2022-09-11T06:02:06.103Z,78.85
2022-09-11T06:04:55.381Z,78.78
2022-09-11T06:12:54.132Z,78.37
2022-09-11T06:31:41.012Z,78.44
2022-09-11T06:34:14.915Z,78.72
2022-09-11T06:39:22.212Z,78.44
2022-09-11T06:41:55.427Z,78.57
2022-09-11T06:44:32.767Z,78.92
2022-09-11T06:47:15.120Z,78.30
2022-09-11T07:56:38.385Z,75.77
2022-09-11T07:59:18.613Z,75.86
2022-09-11T08:16:24.613Z,75.73
2022-09-11T08:18:53.363Z,75.49
2022-09-11T08:21:21.271Z,74.53
2022-09-11T08:23:49.109Z,74.01
2022-09-11T08:26:21.791Z,73.75
2022-09-11T09:08:45.112Z,71.74
2022-09-11T09:11:22.973Z,71.71
2022-09-11T09:14:08.838Z,72.14
2022-09-11T09:16:46.369Z,72.19
2022-09-11T09:19:18.312Z,72.24
2022-09-11T18:26:00.261Z,63.90
2022-09-11T18:28:29.858Z,63.89
2022-09-11T18:31:02.274Z,64.25
2022-09-11T18:33:29.737Z,64.07
2022-09-11T18:35:57.303Z,64.15
2022-09-11T18:49:15.189Z,65.30
2022-09-11T18:51:43.070Z,65.47
2022-09-11T18:54:14.798Z,65.68
2022-09-11T18:56:46.332Z,65.56
2022-09-11T18:59:15.328Z,65.89
2022-09-11T19:01:43.137Z,65.96
2022-09-11T19:04:12.925Z,66.14
2022-09-11T19:06:41.964Z,66.26
2022-09-11T19:09:12.639Z,66.45
2022-09-11T19:11:41.023Z,66.51
2022-09-11T19:14:10.918Z,66.38
2022-09-11T19:16:39.371Z,66.70
2022-09-11T19:19:08.070Z,66.85
2022-09-11T19:21:36.307Z,66.86
2022-09-11T19:24:06.611Z,67.02
2022-09-11T19:26:37.444Z,66.50
2022-09-11T19:29:05.207Z,66.47
2022-09-11T19:31:33.767Z,66.62
2022-09-11T19:34:02.447Z,66.67
2022-09-11T19:36:32.414Z,66.81
2022-09-11T19:39:00.734Z,67.11
2022-09-11T19:41:31.156Z,67.60
2022-09-11T19:44:00.392Z,67.37
2022-09-11T19:46:29.592Z,67.49
2022-09-11T19:49:00.507Z,67.87
2022-09-11T19:51:30.944Z,68.05
2022-09-11T19:54:02.620Z,68.11
2022-09-11T19:56:33.313Z,68.34
2022-09-11T19:59:01.335Z,68.42
2022-09-11T20:01:30.242Z,68.68
2022-09-11T20:04:00.523Z,68.84
2022-09-11T20:06:30.658Z,69.04
2022-09-11T20:09:26.945Z,69.09
2022-09-11T20:11:48.202Z,69.32
2022-09-11T20:14:15.724Z,69.27
2022-09-11T20:16:43.282Z,69.39
2022-09-11T20:19:11.322Z,69.58
2022-09-11T20:21:39.116Z,69.49
2022-09-11T20:24:07.361Z,69.54
2022-09-11T20:26:34.992Z,69.62
2022-09-11T20:29:06.816Z,69.88
2022-09-11T20:31:39.533Z,69.79
2022-09-11T20:34:12.406Z,70.00
2022-09-11T20:36:39.888Z,70.05
2022-09-11T20:39:07.418Z,70.35
2022-09-11T20:41:35.836Z,70.27
2022-09-11T20:44:05.384Z,70.57
2022-09-11T20:46:32.979Z,70.58
2022-09-11T20:49:00.858Z,70.60
2022-09-11T20:51:28.454Z,70.84
2022-09-11T20:53:56.652Z,70.61
2022-09-11T20:56:24.566Z,70.53
2022-09-11T20:58:52.887Z,70.71
2022-09-11T21:01:23.501Z,70.65
2022-09-11T21:03:52.993Z,70.46
2022-09-11T21:06:25.840Z,70.35
2022-09-11T21:08:55.355Z,70.47
2022-09-11T21:11:23.205Z,70.51
2022-09-11T21:13:50.849Z,70.53
2022-09-11T21:16:19.752Z,70.92
2022-09-11T21:18:50.592Z,70.85
2022-09-11T21:21:18.935Z,71.13
2022-09-11T21:23:46.681Z,70.90
2022-09-11T21:26:16.622Z,70.77
2022-09-11T21:28:44.418Z,70.84
2022-09-11T21:31:12.692Z,70.91
2022-09-11T21:33:40.460Z,70.69
2022-09-11T21:36:09.442Z,70.60
2022-09-11T21:38:37.705Z,70.70
2022-09-11T21:41:07.851Z,70.88
2022-09-11T21:43:35.947Z,70.67
2022-09-11T21:46:04.764Z,70.54
2022-09-11T21:48:35.847Z,71.05
2022-09-11T21:51:09.729Z,70.82
2022-09-11T21:53:39.275Z,70.69
2022-09-11T21:56:07.769Z,70.88
2022-09-11T21:58:35.235Z,71.06
2022-09-11T22:01:05.724Z,70.83
2022-09-11T22:03:33.354Z,70.99
2022-09-11T22:06:05.341Z,70.97
2022-09-11T22:08:33.081Z,70.85
2022-09-11T22:11:04.449Z,71.01
2022-09-11T22:13:32.506Z,70.92
2022-09-11T22:16:00.646Z,70.94
2022-09-11T22:18:28.182Z,70.94
2022-09-11T22:20:58.244Z,71.10
2022-09-11T22:23:25.733Z,71.28
2022-09-11T22:25:59.352Z,71.39
2022-09-11T22:28:28.281Z,71.36
2022-09-11T22:30:56.108Z,71.19
2022-09-11T22:33:24.283Z,71.24
2022-09-11T22:35:51.928Z,71.23
2022-09-11T22:38:19.552Z,71.14
2022-09-11T22:40:53.474Z,71.56
2022-09-11T22:43:21.090Z,71.22
2022-09-11T22:45:53.690Z,71.42
2022-09-11T22:48:21.422Z,71.47
2022-09-11T22:50:48.920Z,71.45
2022-09-11T22:53:16.404Z,71.05
2022-09-11T22:55:45.110Z,71.37
2022-09-11T22:58:12.639Z,71.43
2022-09-11T23:00:41.095Z,71.74
2022-09-11T23:03:09.930Z,71.43
2022-09-11T23:06:09.563Z,71.59
2022-09-11T23:08:39.451Z,72.15
2022-09-11T23:11:07.130Z,71.63
2022-09-11T23:13:35.160Z,72.23
2022-09-11T23:16:12.944Z,73.76
2022-09-11T23:18:42.550Z,71.48
2022-09-11T23:21:10.821Z,71.15
2022-09-11T23:23:42.262Z,71.07
2022-09-11T23:26:10.795Z,71.11
2022-09-11T23:28:38.536Z,71.15
2022-09-11T23:31:12.233Z,71.32
2022-09-11T23:33:39.824Z,71.35
2022-09-11T23:36:10.356Z,71.60
2022-09-11T23:38:38.468Z,71.43
2022-09-11T23:41:06.245Z,71.61
2022-09-11T23:43:33.807Z,71.76
2022-09-11T23:46:01.519Z,71.98
2022-09-11T23:48:29.277Z,72.13
2022-09-11T23:50:56.838Z,72.29
2022-09-11T23:53:25.748Z,72.04
2022-09-11T23:55:53.229Z,72.03
2022-09-11T23:58:20.941Z,72.23
